sensor_id;sensor_type;location;lat;lon;timestamp;pressure;altitude;pressure_sealevel;temperature;humidity
66560;BME280;53413;49.878;8.142;2023-04-03T00:01:00;101024.19;;;3.71;100.00
66560;BME280;53413;49.878;8.142;2023-04-03T00:03:25;101020.72;;;3.72;100.00
66560;BME280;53413;49.878;8.142;2023-04-03T00:05:50;101013.84;;;3.76;100.00
66560;BME280;53413;49.878;8.142;2023-04-03T00:08:16;101017.31;;;3.79;100.00
66560;BME280;53413;49.878;8.142;2023-04-03T00:10:42;101015.63;;;3.84;100.00
66560;BME280;53413;49.878;8.142;2023-04-03T00:13:08;101013.88;;;3.87;100.00
66560;BME280;53413;49.878;8.142;2023-04-03T00:15:35;101019.94;;;3.89;100.00
66560;BME280;53413;49.878;8.142;2023-04-03T00:18:01;101013.03;;;3.92;100.00
66560;BME280;53413;49.878;8.142;2023-04-03T00:20:26;101020.84;;;3.94;100.00
66560;BME280;53413;49.878;8.142;2023-04-03T00:22:52;101012.22;;;3.95;100.00
66560;BME280;53413;49.878;8.142;2023-04-03T00:25:18;101019.13;;;3.97;100.00
66560;BME280;53413;49.878;8.142;2023-04-03T00:27:44;101017.41;;;3.98;100.00
66560;BME280;53413;49.878;8.142;2023-04-03T00:30:12;101018.28;;;3.98;100.00
66560;BME280;53413;49.878;8.142;2023-04-03T00:32:38;101022.59;;;3.99;100.00
66560;BME280;53413;49.878;8.142;2023-04-03T00:35:03;101018.28;;;4.00;100.00
66560;BME280;53413;49.878;8.142;2023-04-03T00:37:29;101021.75;;;4.00;100.00
66560;BME280;53413;49.878;8.142;2023-04-03T00:39:54;101023.50;;;4.02;100.00
66560;BME280;53413;49.878;8.142;2023-04-03T00:42:19;101025.22;;;4.03;100.00
66560;BME280;53413;49.878;8.142;2023-04-03T00:47:11;101022.66;;;4.09;100.00
66560;BME280;53413;49.878;8.142;2023-04-03T00:49:38;101027.84;;;4.12;100.00
66560;BME280;53413;49.878;8.142;2023-04-03T00:52:12;101026.13;;;4.12;100.00
66560;BME280;53413;49.878;8.142;2023-04-03T00:54:40;101028.72;;;4.11;100.00
66560;BME280;53413;49.878;8.142;2023-04-03T00:57:07;101029.56;;;4.08;100.00
66560;BME280;53413;49.878;8.142;2023-04-03T00:59:36;101023.50;;;4.06;100.00
66560;BME280;53413;49.878;8.142;2023-04-03T01:02:05;101022.63;;;4.04;100.00
66560;BME280;53413;49.878;8.142;2023-04-03T01:04:35;101023.50;;;4.02;100.00
66560;BME280;53413;49.878;8.142;2023-04-03T01:07:08;101015.69;;;3.98;100.00
66560;BME280;53413;49.878;8.142;2023-04-03T01:09:34;101019.16;;;4.00;100.00
66560;BME280;53413;49.878;8.142;2023-04-03T01:12:18;101024.34;;;4.00;100.00
66560;BME280;53413;49.878;8.142;2023-04-03T01:14:45;101019.16;;;4.00;100.00
66560;BME280;53413;49.878;8.142;2023-04-03T01:17:45;101017.44;;;4.04;100.00
66560;BME280;53413;49.878;8.142;2023-04-03T01:28:05;101020.88;;;4.03;100.00
66560;BME280;53413;49.878;8.142;2023-04-03T01:30:38;101017.44;;;4.04;100.00
66560;BME280;53413;49.878;8.142;2023-04-03T01:33:06;101018.31;;;4.08;100.00
66560;BME280;53413;49.878;8.142;2023-04-03T01:35:31;101016.56;;;4.04;100.00
66560;BME280;53413;49.878;8.142;2023-04-03T01:37:57;101019.16;;;4.00;100.00
66560;BME280;53413;49.878;8.142;2023-04-03T01:40:22;101018.28;;;3.98;100.00
66560;BME280;53413;49.878;8.142;2023-04-03T01:42:47;101019.13;;;3.97;100.00
66560;BME280;53413;49.878;8.142;2023-04-03T01:45:13;101019.13;;;3.96;100.00
66560;BME280;53413;49.878;8.142;2023-04-03T01:47:38;101024.28;;;3.88;100.00
66560;BME280;53413;49.878;8.142;2023-04-03T01:50:03;101029.47;;;3.88;100.00
66560;BME280;53413;49.878;8.142;2023-04-03T01:52:29;101026.00;;;3.86;100.00
66560;BME280;53413;49.878;8.142;2023-04-03T01:54:55;101023.41;;;3.86;100.00
66560;BME280;53413;49.878;8.142;2023-04-03T01:57:20;101029.44;;;3.85;100.00
66560;BME280;53413;49.878;8.142;2023-04-03T01:59:46;101022.53;;;3.82;100.00
66560;BME280;53413;49.878;8.142;2023-04-03T02:02:11;101025.94;;;3.78;100.00
66560;BME280;53413;49.878;8.142;2023-04-03T02:04:37;101018.16;;;3.77;100.00
66560;BME280;53413;49.878;8.142;2023-04-03T02:07:03;101022.47;;;3.76;100.00
66560;BME280;53413;49.878;8.142;2023-04-03T02:09:28;101017.28;;;3.75;100.00
66560;BME280;53413;49.878;8.142;2023-04-03T02:11:53;101016.44;;;3.76;100.00
66560;BME280;53413;49.878;8.142;2023-04-03T02:14:19;101024.19;;;3.71;100.00
66560;BME280;53413;49.878;8.142;2023-04-03T02:16:45;101020.69;;;3.69;100.00
66560;BME280;53413;49.878;8.142;2023-04-03T02:19:10;101015.50;;;3.67;100.00
66560;BME280;53413;49.878;8.142;2023-04-03T02:21:36;101021.53;;;3.63;100.00
66560;BME280;53413;49.878;8.142;2023-04-03T02:24:01;101015.47;;;3.61;100.00
66560;BME280;53413;49.878;8.142;2023-04-03T02:26:26;101011.09;;;3.56;100.00
66560;BME280;53413;49.878;8.142;2023-04-03T02:28:52;101012.81;;;3.52;100.00
66560;BME280;53413;49.878;8.142;2023-04-03T02:31:17;101013.63;;;3.49;100.00
66560;BME280;53413;49.878;8.142;2023-04-03T02:33:43;101008.47;;;3.46;100.00
66560;BME280;53413;49.878;8.142;2023-04-03T02:36:08;101007.56;;;3.43;100.00
66560;BME280;53413;49.878;8.142;2023-04-03T02:38:34;101001.47;;;3.39;100.00
66560;BME280;53413;49.878;8.142;2023-04-03T02:41:06;101009.22;;;3.34;100.00
66560;BME280;53413;49.878;8.142;2023-04-03T02:43:31;101010.91;;;3.28;100.00
66560;BME280;53413;49.878;8.142;2023-04-03T02:45:57;101009.16;;;3.25;100.00
66560;BME280;53413;49.878;8.142;2023-04-03T02:48:22;101010.00;;;3.26;100.00
66560;BME280;53413;49.878;8.142;2023-04-03T02:50:48;101014.34;;;3.25;100.00
66560;BME280;53413;49.878;8.142;2023-04-03T02:53:14;101018.66;;;3.25;100.00
66560;BME280;53413;49.878;8.142;2023-04-03T02:55:40;101013.47;;;3.25;100.00
66560;BME280;53413;49.878;8.142;2023-04-03T02:58:05;101018.66;;;3.26;100.00
66560;BME280;53413;49.878;8.142;2023-04-03T03:00:31;101015.19;;;3.26;100.00
66560;BME280;53413;49.878;8.142;2023-04-03T03:02:56;101010.91;;;3.25;100.00
66560;BME280;53413;49.878;8.142;2023-04-03T03:05:21;101020.41;;;3.27;100.00
66560;BME280;53413;49.878;8.142;2023-04-03T03:07:47;101014.38;;;3.28;100.00
66560;BME280;53413;49.878;8.142;2023-04-03T03:10:13;101017.84;;;3.32;100.00
66560;BME280;53413;49.878;8.142;2023-04-03T03:12:38;101017.84;;;3.33;100.00
66560;BME280;53413;49.878;8.142;2023-04-03T03:15:03;101010.06;;;3.33;100.00
66560;BME280;53413;49.878;8.142;2023-04-03T03:17:29;101023.03;;;3.33;100.00
66560;BME280;53413;49.878;8.142;2023-04-03T03:19:55;101023.03;;;3.32;100.00
66560;BME280;53413;49.878;8.142;2023-04-03T03:22:20;101016.09;;;3.29;100.00
66560;BME280;53413;49.878;8.142;2023-04-03T03:24:45;101022.13;;;3.28;100.00
66560;BME280;53413;49.878;8.142;2023-04-03T03:27:11;101015.19;;;3.26;100.00
66560;BME280;53413;49.878;8.142;2023-04-03T03:29:37;101015.16;;;3.21;100.00
66560;BME280;53413;49.878;8.142;2023-04-03T03:32:02;101018.56;;;3.15;100.00
66560;BME280;53413;49.878;8.142;2023-04-03T03:34:28;101022.84;;;3.12;100.00
66560;BME280;53413;49.878;8.142;2023-04-03T03:36:53;101021.97;;;3.06;100.00
66560;BME280;53413;49.878;8.142;2023-04-03T03:39:18;101019.34;;;3.03;100.00
66560;BME280;53413;49.878;8.142;2023-04-03T03:41:44;101016.72;;;3.00;100.00
66560;BME280;53413;49.878;8.142;2023-04-03T03:44:09;101018.41;;;2.98;100.00
66560;BME280;53413;49.878;8.142;2023-04-03T03:46:35;101021.00;;;2.97;100.00
66560;BME280;53413;49.878;8.142;2023-04-03T03:49:00;101027.88;;;2.95;100.00
66560;BME280;53413;49.878;8.142;2023-04-03T03:51:25;101020.06;;;2.91;100.00
66560;BME280;53413;49.878;8.142;2023-04-03T03:53:51;101018.28;;;2.84;100.00
66560;BME280;53413;49.878;8.142;2023-04-03T03:56:16;101022.56;;;2.81;100.00
66560;BME280;53413;49.878;8.142;2023-04-03T03:58:41;101022.50;;;2.74;100.00
66560;BME280;53413;49.878;8.142;2023-04-03T04:01:07;101020.75;;;2.70;100.00
66560;BME280;53413;49.878;8.142;2023-04-03T04:03:32;101022.41;;;2.65;100.00
66560;BME280;53413;49.878;8.142;2023-04-03T04:05:58;101021.47;;;2.60;100.00
66560;BME280;53413;49.878;8.142;2023-04-03T04:08:24;101027.44;;;2.53;100.00
66560;BME280;53413;49.878;8.142;2023-04-03T04:10:49;101017.91;;;2.45;100.00
66560;BME280;53413;49.878;8.142;2023-04-03T04:13:15;101023.88;;;2.40;100.00
66560;BME280;53413;49.878;8.142;2023-04-03T04:15:40;101027.25;;;2.34;100.00
66560;BME280;53413;49.878;8.142;2023-04-03T04:18:06;101027.22;;;2.31;100.00
66560;BME280;53413;49.878;8.142;2023-04-03T04:20:31;101030.63;;;2.28;100.00
66560;BME280;53413;49.878;8.142;2023-04-03T04:22:56;101019.34;;;2.23;100.00
66560;BME280;53413;49.878;8.142;2023-04-03T04:25:22;101022.72;;;2.19;100.00
66560;BME280;53413;49.878;8.142;2023-04-03T04:27:47;101026.16;;;2.18;100.00
66560;BME280;53413;49.878;8.142;2023-04-03T04:30:13;101022.72;;;2.19;100.00
66560;BME280;53413;49.878;8.142;2023-04-03T04:32:38;101027.88;;;2.16;100.00
66560;BME280;53413;49.878;8.142;2023-04-03T04:35:04;101036.50;;;2.17;100.00
66560;BME280;53413;49.878;8.142;2023-04-03T04:37:29;101025.31;;;2.18;100.00
66560;BME280;53413;49.878;8.142;2023-04-03T04:39:55;101029.66;;;2.20;100.00
66560;BME280;53413;49.878;8.142;2023-04-03T04:42:20;101029.69;;;2.22;100.00
66560;BME280;53413;49.878;8.142;2023-04-03T04:44:45;101028.81;;;2.23;100.00
66560;BME280;53413;49.878;8.142;2023-04-03T04:47:11;101034.03;;;2.26;100.00
66560;BME280;53413;49.878;8.142;2023-04-03T04:49:36;101030.63;;;2.28;100.00
66560;BME280;53413;49.878;8.142;2023-04-03T04:52:02;101032.38;;;2.31;100.00
66560;BME280;53413;49.878;8.142;2023-04-03T04:54:27;101037.59;;;2.34;100.00
66560;BME280;53413;49.878;8.142;2023-04-03T04:56:52;101039.34;;;2.38;100.00
66560;BME280;53413;49.878;8.142;2023-04-03T04:59:17;101041.03;;;2.36;100.00
66560;BME280;53413;49.878;8.142;2023-04-03T05:01:43;101050.50;;;2.33;100.00
66560;BME280;53413;49.878;8.142;2023-04-03T05:04:08;101045.25;;;2.28;100.00
66560;BME280;53413;49.878;8.142;2023-04-03T05:06:34;101046.16;;;2.30;100.00
66560;BME280;53413;49.878;8.142;2023-04-03T05:09:00;101049.66;;;2.35;100.00
66560;BME280;53413;49.878;8.142;2023-04-03T05:11:26;101055.75;;;2.40;100.00
66560;BME280;53413;49.878;8.142;2023-04-03T05:13:52;101058.41;;;2.45;100.00
66560;BME280;53413;49.878;8.142;2023-04-03T05:16:17;101061.88;;;2.49;100.00
66560;BME280;53413;49.878;8.142;2023-04-03T05:18:42;101056.75;;;2.52;100.00
66560;BME280;53413;49.878;8.142;2023-04-03T05:21:08;101060.25;;;2.54;100.00
66560;BME280;53413;49.878;8.142;2023-04-03T05:23:33;101063.72;;;2.56;100.00
66560;BME280;53413;49.878;8.142;2023-04-03T05:25:58;101060.28;;;2.57;100.00
66560;BME280;53413;49.878;8.142;2023-04-03T05:28:24;101074.97;;;2.59;100.00
66560;BME280;53413;49.878;8.142;2023-04-03T05:30:53;101068.06;;;2.60;100.00
66560;BME280;53413;49.878;8.142;2023-04-03T05:33:20;101068.94;;;2.62;100.00
66560;BME280;53413;49.878;8.142;2023-04-03T05:35:45;101073.28;;;2.63;100.00
66560;BME280;53413;49.878;8.142;2023-04-03T05:38:11;101064.72;;;2.69;100.00
66560;BME280;53413;49.878;8.142;2023-04-03T05:40:37;101078.59;;;2.75;100.00
66560;BME280;53413;49.878;8.142;2023-04-03T05:43:02;101073.47;;;2.79;100.00
66560;BME280;53413;49.878;8.142;2023-04-03T05:45:28;101078.69;;;2.85;100.00
66560;BME280;53413;49.878;8.142;2023-04-03T05:47:53;101081.34;;;2.91;100.00
66560;BME280;53413;49.878;8.142;2023-04-03T05:50:19;101084.06;;;3.03;100.00
66560;BME280;53413;49.878;8.142;2023-04-03T05:52:46;101087.56;;;3.08;100.00
66560;BME280;53413;49.878;8.142;2023-04-03T05:55:14;101088.47;;;3.12;100.00
66560;BME280;53413;49.878;8.142;2023-04-03T05:57:39;101087.72;;;3.22;100.00
66560;BME280;53413;49.878;8.142;2023-04-03T06:00:06;101092.09;;;3.28;100.00
66560;BME280;53413;49.878;8.142;2023-04-03T06:02:32;101091.22;;;3.29;100.00
66560;BME280;53413;49.878;8.142;2023-04-03T06:04:57;101090.44;;;3.38;100.00
66560;BME280;53413;49.878;8.142;2023-04-03T06:07:24;101090.53;;;3.49;100.00
66560;BME280;53413;49.878;8.142;2023-04-03T06:09:54;101095.75;;;3.52;100.00
66560;BME280;53413;49.878;8.142;2023-04-03T06:12:21;101102.63;;;3.50;100.00
66560;BME280;53413;49.878;8.142;2023-04-03T06:14:47;101099.22;;;3.56;100.00
66560;BME280;53413;49.878;8.142;2023-04-03T06:17:14;101096.59;;;3.51;100.00
66560;BME280;53413;49.878;8.142;2023-04-03T06:19:39;101105.19;;;3.47;100.00
66560;BME280;53413;49.878;8.142;2023-04-03T06:22:04;101103.53;;;3.52;100.00
66560;BME280;53413;49.878;8.142;2023-04-03T06:24:31;101106.25;;;3.70;100.00
66560;BME280;53413;49.878;8.142;2023-04-03T06:26:57;101111.72;;;4.11;100.00
66560;BME280;53413;49.878;8.142;2023-04-03T06:29:23;101104.94;;;4.41;100.00
66560;BME280;53413;49.878;8.142;2023-04-03T06:31:49;101109.44;;;4.73;100.00
66560;BME280;53413;49.878;8.142;2023-04-03T06:34:15;101112.03;;;4.79;100.00
66560;BME280;53413;49.878;8.142;2023-04-03T06:36:42;101113.88;;;5.11;100.00
66560;BME280;53413;49.878;8.142;2023-04-03T06:39:11;101101.75;;;5.29;100.00
66560;BME280;53413;49.878;8.142;2023-04-03T06:41:38;101114.56;;;6.68;100.00
66560;BME280;53413;49.878;8.142;2023-04-03T06:44:03;101117.41;;;7.71;89.55
66560;BME280;53413;49.878;8.142;2023-04-03T06:46:28;101113.28;;;7.44;90.07
66560;BME280;53413;49.878;8.142;2023-04-03T06:48:54;101120.19;;;8.43;83.85
66560;BME280;53413;49.878;8.142;2023-04-03T06:51:24;101110.56;;;8.46;80.99
66560;BME280;53413;49.878;8.142;2023-04-03T06:53:51;101118.31;;;7.65;82.87
66560;BME280;53413;49.878;8.142;2023-04-03T06:56:17;101128.84;;;7.54;84.62
66560;BME280;53413;49.878;8.142;2023-04-03T06:58:43;101132.06;;;9.91;76.38
66560;BME280;53413;49.878;8.142;2023-04-03T07:01:10;101111.53;;;13.32;66.75
66560;BME280;53413;49.878;8.142;2023-04-03T07:03:36;101105.50;;;16.31;54.63
66560;BME280;53413;49.878;8.142;2023-04-03T07:06:03;101102.72;;;18.36;46.12
66560;BME280;53413;49.878;8.142;2023-04-03T07:08:29;101102.25;;;19.25;43.96
66560;BME280;53413;49.878;8.142;2023-04-03T07:10:55;101099.59;;;21.57;39.07
66560;BME280;53413;49.878;8.142;2023-04-03T07:13:21;101103.63;;;20.95;38.52
66560;BME280;53413;49.878;8.142;2023-04-03T07:15:46;101112.28;;;20.84;37.01
66560;BME280;53413;49.878;8.142;2023-04-03T07:18:12;101107.88;;;21.79;35.96
66560;BME280;53413;49.878;8.142;2023-04-03T07:20:38;101120.22;;;20.85;36.09
66560;BME280;53413;49.878;8.142;2023-04-03T07:23:03;101122.56;;;20.61;35.78
66560;BME280;53413;49.878;8.142;2023-04-03T07:25:29;101117.34;;;21.43;35.54
66560;BME280;53413;49.878;8.142;2023-04-03T07:27:55;101111.72;;;21.88;33.93
66560;BME280;53413;49.878;8.142;2023-04-03T07:30:21;101121.22;;;22.57;34.22
66560;BME280;53413;49.878;8.142;2023-04-03T07:32:47;101115.28;;;24.44;32.40
66560;BME280;53413;49.878;8.142;2023-04-03T07:35:12;101120.69;;;25.11;30.75
66560;BME280;53413;49.878;8.142;2023-04-03T07:37:37;101110.69;;;25.57;29.81
66560;BME280;53413;49.878;8.142;2023-04-03T07:40:03;101108.38;;;25.95;28.96
66560;BME280;53413;49.878;8.142;2023-04-03T07:42:29;101113.16;;;26.34;28.25
66560;BME280;53413;49.878;8.142;2023-04-03T07:44:54;101124.34;;;25.54;28.16
66560;BME280;53413;49.878;8.142;2023-04-03T07:47:20;101124.53;;;24.97;28.34
66560;BME280;53413;49.878;8.142;2023-04-03T07:49:46;101126.44;;;25.07;28.28
66560;BME280;53413;49.878;8.142;2023-04-03T07:52:12;101125.91;;;24.69;28.14
66560;BME280;53413;49.878;8.142;2023-04-03T07:54:38;101140.28;;;23.51;28.55
66560;BME280;53413;49.878;8.142;2023-04-03T07:57:03;101134.72;;;23.30;29.31
